Time;durP1;ratioP1;P1;durP2;ratioP2;P2;SDS_P1;SDS_P2;PMS_P1;PMS_P2;Temp;Humidity;BMP_temperature;BMP_pressure;BME280_temperature;BME280_humidity;BME280_pressure;Samples;Min_cycle;Max_cycle;Signal;HPM_P1;HPM_P2
2024/03/18 00:00:41;;;;;;;9.93;3.00;;;8.00;99.90;;;;;;4878666;29;20466;-69
2024/03/18 00:03:08;;;;;;;6.70;2.70;;;8.00;99.90;;;;;;4878777;29;20481;-68
2024/03/18 00:05:37;;;;;;;4.57;2.80;;;7.90;99.90;;;;;;4878917;29;20468;-69
2024/03/18 00:08:05;;;;;;;5.97;2.40;;;7.90;99.90;;;;;;4879044;29;20796;-68
2024/03/18 00:10:33;;;;;;;4.97;2.17;;;7.90;99.90;;;;;;4878387;29;20485;-69
2024/03/18 00:13:00;;;;;;;6.00;2.33;;;7.90;99.90;;;;;;4878303;29;20505;-69
2024/03/18 00:15:27;;;;;;;6.10;2.50;;;7.90;99.90;;;;;;4879060;29;20527;-69
2024/03/18 00:17:55;;;;;;;7.67;3.00;;;7.90;99.90;;;;;;4878485;29;20457;-69
2024/03/18 00:20:22;;;;;;;6.00;2.83;;;7.80;99.90;;;;;;4879079;29;20470;-69
2024/03/18 00:22:50;;;;;;;8.23;2.23;;;7.80;99.90;;;;;;4878879;29;20470;-69
2024/03/18 00:25:18;;;;;;;7.23;2.40;;;7.80;99.90;;;;;;4879104;29;20505;-69
2024/03/18 00:27:45;;;;;;;5.30;2.27;;;7.80;99.90;;;;;;4878759;29;20549;-69
2024/03/18 00:30:14;;;;;;;9.13;2.70;;;7.80;99.90;;;;;;4879974;29;20485;-69
2024/03/18 00:32:43;;;;;;;7.43;2.73;;;7.80;99.90;;;;;;4866605;29;20450;-69
2024/03/18 00:35:11;;;;;;;5.37;2.40;;;7.80;99.90;;;;;;4882043;29;20449;-69
2024/03/18 00:37:39;;;;;;;4.87;2.10;;;7.80;99.90;;;;;;4882022;29;20450;-69
2024/03/18 00:40:10;;;;;;;6.60;2.63;;;7.70;99.90;;;;;;4882249;29;20474;-69
2024/03/18 00:42:37;;;;;;;5.47;2.43;;;7.70;99.90;;;;;;4882141;29;20461;-69
2024/03/18 00:45:05;;;;;;;6.83;3.53;;;7.70;99.90;;;;;;4881942;29;20455;-69
2024/03/18 00:47:33;;;;;;;5.40;2.40;;;7.70;99.90;;;;;;4881838;29;20458;-69
2024/03/18 00:50:00;;;;;;;5.70;2.63;;;7.70;99.90;;;;;;4881717;29;20849;-69
2024/03/18 00:52:27;;;;;;;5.17;2.20;;;7.60;99.90;;;;;;4882031;29;20485;-69
2024/03/18 00:54:55;;;;;;;7.80;2.80;;;7.60;99.90;;;;;;4881936;29;20449;-69
2024/03/18 00:57:23;;;;;;;6.70;3.30;;;7.60;99.90;;;;;;4881731;29;20506;-69
2024/03/18 00:59:51;;;;;;;6.43;2.43;;;7.60;99.90;;;;;;4881613;29;20466;-68
2024/03/18 01:02:17;;;;;;;6.77;3.07;;;7.60;99.90;;;;;;4881805;29;20474;-69
2024/03/18 01:04:45;;;;;;;6.53;3.00;;;7.60;99.90;;;;;;4882113;29;20460;-69
2024/03/18 01:07:12;;;;;;;6.33;3.20;;;7.60;99.90;;;;;;4881778;29;20473;-69
2024/03/18 01:09:41;;;;;;;6.50;3.03;;;7.60;99.90;;;;;;4881398;29;20521;-69
2024/03/18 01:12:09;;;;;;;5.73;3.13;;;7.50;99.90;;;;;;4896989;29;20545;-69
2024/03/18 01:14:37;;;;;;;6.90;2.53;;;7.50;99.90;;;;;;4881390;29;20954;-69
2024/03/18 01:17:05;;;;;;;5.83;2.70;;;7.50;99.90;;;;;;4881318;29;20952;-69
2024/03/18 01:19:33;;;;;;;6.13;2.50;;;7.50;99.90;;;;;;4881253;29;20474;-69
2024/03/18 01:22:00;;;;;;;7.17;2.67;;;7.50;99.90;;;;;;4881468;29;20462;-69
2024/03/18 01:24:28;;;;;;;7.47;2.90;;;7.50;99.90;;;;;;4881279;29;20486;-69
2024/03/18 01:26:55;;;;;;;5.67;2.50;;;7.50;99.90;;;;;;4881224;29;20460;-69
2024/03/18 01:29:22;;;;;;;7.30;2.90;;;7.50;99.90;;;;;;4881134;29;20457;-69
2024/03/18 01:31:51;;;;;;;5.43;2.60;;;7.50;99.90;;;;;;4881189;29;20960;-69
2024/03/18 01:34:19;;;;;;;6.50;3.00;;;7.50;99.90;;;;;;4881371;29;20450;-69
2024/03/18 01:36:46;;;;;;;4.83;2.43;;;7.50;99.90;;;;;;4880949;29;20465;-68
2024/03/18 01:39:19;;;;;;;7.00;3.30;;;7.40;99.90;;;;;;4881174;29;20450;-68
2024/03/18 01:41:46;;;;;;;6.70;2.73;;;7.40;99.90;;;;;;4881330;29;20439;-68
2024/03/18 01:44:14;;;;;;;8.23;2.80;;;7.40;99.90;;;;;;4880804;29;20477;-68
2024/03/18 01:46:41;;;;;;;6.50;2.93;;;7.40;99.90;;;;;;4880838;29;20514;-68
2024/03/18 01:49:10;;;;;;;6.60;2.80;;;7.40;99.90;;;;;;4896688;29;20977;-69
2024/03/18 01:51:37;;;;;;;7.97;2.83;;;7.40;99.90;;;;;;4880787;29;20509;-68
2024/03/18 01:54:05;;;;;;;9.30;3.30;;;7.40;99.90;;;;;;4880732;29;20535;-68
2024/03/18 01:56:33;;;;;;;8.77;4.17;;;7.40;99.90;;;;;;4880591;29;20458;-69
2024/03/18 01:59:05;;;;;;;7.40;2.60;;;7.30;99.90;;;;;;4880693;29;20955;-68
2024/03/18 02:01:32;;;;;;;5.80;2.80;;;7.30;99.90;;;;;;4880718;29;20470;-68
2024/03/18 02:04:07;;;;;;;8.87;2.77;;;7.30;99.90;;;;;;4880799;29;20473;-68
2024/03/18 02:06:37;;;;;;;7.27;2.90;;;7.30;99.90;;;;;;4880976;29;20481;-69
2024/03/18 02:09:04;;;;;;;6.30;3.00;;;7.30;99.90;;;;;;4880558;29;20872;-68
2024/03/18 02:11:31;;;;;;;6.27;2.53;;;7.30;99.90;;;;;;4880333;29;20889;-68
2024/03/18 02:13:59;;;;;;;6.83;2.63;;;7.30;99.90;;;;;;4896341;29;20904;-68
2024/03/18 02:16:28;;;;;;;7.70;3.20;;;7.20;99.90;;;;;;4880366;29;20450;-69
2024/03/18 02:18:55;;;;;;;7.00;2.80;;;7.20;99.90;;;;;;4880409;29;20557;-68
2024/03/18 02:21:22;;;;;;;10.20;3.70;;;7.20;99.90;;;;;;4880223;29;20886;-68
2024/03/18 02:23:51;;;;;;;6.00;2.60;;;7.20;99.90;;;;;;4880158;29;20476;-68
2024/03/18 02:26:18;;;;;;;6.70;2.70;;;7.20;99.90;;;;;;4880171;29;20457;-68
2024/03/18 02:28:46;;;;;;;6.07;2.63;;;7.20;99.90;;;;;;4880139;29;20453;-68
2024/03/18 02:31:14;;;;;;;6.73;2.50;;;7.20;99.90;;;;;;4880121;29;21015;-68
2024/03/18 02:33:42;;;;;;;4.20;2.57;;;7.20;99.90;;;;;;4880003;29;20458;-68
2024/03/18 02:36:09;;;;;;;5.43;2.50;;;7.20;99.90;;;;;;4879975;29;20450;-68
2024/03/18 02:38:37;;;;;;;6.80;3.40;;;7.10;99.90;;;;;;4880771;29;20560;-68
2024/03/18 02:41:06;;;;;;;4.70;2.80;;;7.10;99.90;;;;;;4880087;29;20474;-68
2024/03/18 02:43:33;;;;;;;6.20;3.40;;;7.10;99.90;;;;;;4879804;29;20488;-68
2024/03/18 02:46:00;;;;;;;5.60;2.70;;;7.10;99.90;;;;;;4880256;29;20476;-68
2024/03/18 02:48:30;;;;;;;7.10;2.83;;;7.10;99.90;;;;;;4880018;29;20550;-68
2024/03/18 02:50:58;;;;;;;7.50;2.53;;;7.10;99.90;;;;;;4879877;29;20533;-68
2024/03/18 02:53:25;;;;;;;5.83;3.10;;;7.10;99.90;;;;;;4879147;29;20476;-68
2024/03/18 02:55:54;;;;;;;6.20;2.80;;;7.10;99.90;;;;;;4879803;29;20823;-68
2024/03/18 02:58:23;;;;;;;4.50;2.40;;;7.00;99.90;;;;;;4879661;29;20457;-68
2024/03/18 03:00:52;;;;;;;5.07;2.43;;;7.00;99.90;;;;;;4879570;29;20480;-68
2024/03/18 03:03:19;;;;;;;4.83;2.70;;;7.00;99.90;;;;;;4879438;29;21014;-68
2024/03/18 03:05:46;;;;;;;7.33;2.70;;;7.00;99.90;;;;;;4879381;29;20465;-67
2024/03/18 03:08:14;;;;;;;6.77;3.10;;;7.00;99.90;;;;;;4879456;29;20477;-68
2024/03/18 03:10:41;;;;;;;6.57;2.70;;;7.00;99.90;;;;;;4879405;29;20481;-68
2024/03/18 03:13:08;;;;;;;8.03;3.57;;;7.00;99.90;;;;;;4879388;29;20491;-69
2024/03/18 03:15:37;;;;;;;5.77;2.73;;;7.00;99.90;;;;;;4879409;29;20533;-68
2024/03/18 03:18:05;;;;;;;6.00;2.53;;;7.00;99.90;;;;;;4879434;29;20460;-68
2024/03/18 03:20:33;;;;;;;3.97;2.40;;;6.90;99.90;;;;;;4879353;29;20476;-69
2024/03/18 03:23:00;;;;;;;6.53;2.83;;;6.90;99.90;;;;;;4879528;29;20481;-68
2024/03/18 03:25:27;;;;;;;5.50;2.80;;;6.90;99.90;;;;;;4879274;29;20465;-68
2024/03/18 03:28:01;;;;;;;9.23;2.70;;;6.90;99.90;;;;;;4879100;29;20970;-68
2024/03/18 03:30:28;;;;;;;7.23;3.53;;;6.90;99.90;;;;;;4879502;29;20473;-68
2024/03/18 03:32:56;;;;;;;7.50;3.23;;;6.90;99.90;;;;;;4879134;29;20462;-68
2024/03/18 03:35:23;;;;;;;8.50;3.13;;;6.90;99.90;;;;;;4879205;29;20461;-68
2024/03/18 03:37:50;;;;;;;9.83;2.87;;;6.90;99.90;;;;;;4879118;29;20454;-68
2024/03/18 03:40:18;;;;;;;8.93;2.70;;;6.90;99.90;;;;;;4879185;29;20484;-68
2024/03/18 03:42:45;;;;;;;9.17;2.30;;;6.90;99.90;;;;;;4878961;29;20458;-68
2024/03/18 03:45:13;;;;;;;11.10;3.33;;;6.90;99.90;;;;;;4878814;29;20450;-68
2024/03/18 03:47:40;;;;;;;10.50;2.87;;;6.90;99.90;;;;;;4879412;29;20509;-68
2024/03/18 03:50:11;;;;;;;6.70;3.30;;;6.90;99.90;;;;;;4879229;29;20480;-68
2024/03/18 03:52:38;;;;;;;7.10;2.73;;;6.90;99.90;;;;;;4879099;29;20765;-68
2024/03/18 03:55:06;;;;;;;10.67;3.30;;;6.90;99.90;;;;;;4879069;29;20488;-68
2024/03/18 03:57:33;;;;;;;7.93;2.97;;;6.90;99.90;;;;;;4878957;29;20540;-69
2024/03/18 04:00:02;;;;;;;7.20;3.00;;;6.90;99.90;;;;;;4878758;29;20980;-68
2024/03/18 04:02:39;;;;;;;4.87;3.10;;;6.90;99.90;;;;;;4878807;29;20438;-69
2024/03/18 04:05:07;;;;;;;6.77;2.70;;;6.90;99.90;;;;;;4878060;29;20477;-68
2024/03/18 04:07:35;;;;;;;7.23;2.77;;;6.90;99.90;;;;;;4878611;29;20956;-68
2024/03/18 04:10:03;;;;;;;6.20;2.70;;;6.90;99.90;;;;;;4878559;29;20474;-69
2024/03/18 04:12:30;;;;;;;8.00;3.53;;;6.80;99.90;;;;;;4878302;29;20472;-69
2024/03/18 04:14:57;;;;;;;11.07;3.37;;;6.90;99.90;;;;;;4878565;29;20525;-68
2024/03/18 04:17:25;;;;;;;6.53;2.97;;;6.80;99.90;;;;;;4878705;29;20457;-68
2024/03/18 04:19:54;;;;;;;5.00;2.77;;;6.80;99.90;;;;;;4879219;29;20474;-69
2024/03/18 04:22:21;;;;;;;7.13;2.80;;;6.80;99.90;;;;;;4894848;29;20460;-68
2024/03/18 04:24:50;;;;;;;6.30;2.70;;;6.80;99.90;;;;;;4878446;29;21002;-68
2024/03/18 04:27:18;;;;;;;6.90;2.63;;;6.80;99.90;;;;;;4878704;29;20461;-68
2024/03/18 04:29:46;;;;;;;5.43;2.97;;;6.80;99.90;;;;;;4878425;29;20474;-68
2024/03/18 04:32:13;;;;;;;7.73;3.20;;;6.80;99.90;;;;;;4878644;29;20492;-68
2024/03/18 04:34:41;;;;;;;7.10;2.77;;;6.80;99.90;;;;;;4878640;29;20471;-68
2024/03/18 04:37:08;;;;;;;10.20;3.13;;;6.80;99.90;;;;;;4878222;29;20450;-68
2024/03/18 04:39:35;;;;;;;7.63;3.37;;;6.80;99.90;;;;;;4878669;29;20824;-68
2024/03/18 04:42:05;;;;;;;8.10;2.87;;;6.80;99.90;;;;;;4894077;29;20446;-68
2024/03/18 04:44:33;;;;;;;7.57;2.90;;;6.80;99.90;;;;;;4878539;29;20493;-68
2024/03/18 04:47:00;;;;;;;6.87;3.17;;;6.80;99.90;;;;;;4878252;29;20510;-68
2024/03/18 04:49:28;;;;;;;6.53;3.13;;;6.80;99.90;;;;;;4878143;29;20905;-69
2024/03/18 04:51:55;;;;;;;5.70;2.83;;;6.70;99.90;;;;;;4878108;29;20456;-68
2024/03/18 04:54:22;;;;;;;6.73;2.70;;;6.70;99.90;;;;;;4893726;29;20446;-68
2024/03/18 04:56:49;;;;;;;6.87;3.33;;;6.70;99.90;;;;;;4878175;29;20454;-68
2024/03/18 04:59:18;;;;;;;9.57;2.97;;;6.70;99.90;;;;;;4878055;29;20462;-68
2024/03/18 05:01:45;;;;;;;4.83;2.80;;;6.70;99.90;;;;;;4878092;29;20962;-68
2024/03/18 05:04:12;;;;;;;10.13;3.30;;;6.70;99.90;;;;;;4878051;29;20555;-68
2024/03/18 05:06:40;;;;;;;5.20;3.33;;;6.70;99.90;;;;;;4878111;29;20514;-68
2024/03/18 05:09:09;;;;;;;9.23;3.60;;;6.60;99.90;;;;;;4878048;29;20457;-69
2024/03/18 05:11:36;;;;;;;8.73;3.17;;;6.60;99.90;;;;;;4877863;29;20470;-69
2024/03/18 05:14:04;;;;;;;5.97;3.40;;;6.60;99.90;;;;;;4877977;29;20451;-69
2024/03/18 05:16:37;;;;;;;5.77;3.47;;;6.60;99.90;;;;;;4879948;29;20857;-68
2024/03/18 05:19:05;;;;;;;6.40;2.77;;;6.60;99.90;;;;;;4865931;29;20456;-68
2024/03/18 05:21:32;;;;;;;6.80;3.10;;;6.60;99.90;;;;;;4881286;29;20481;-68
2024/03/18 05:24:00;;;;;;;7.57;3.50;;;6.60;99.90;;;;;;4881352;29;20473;-68
2024/03/18 05:26:27;;;;;;;7.50;3.47;;;6.60;99.90;;;;;;4881366;29;20505;-69
2024/03/18 05:28:54;;;;;;;6.77;4.00;;;6.60;99.90;;;;;;4881399;29;20457;-68
2024/03/18 05:31:22;;;;;;;10.47;4.00;;;6.60;99.90;;;;;;4881134;29;20473;-68
2024/03/18 05:33:51;;;;;;;5.67;2.80;;;6.60;99.90;;;;;;4881386;29;20458;-68
2024/03/18 05:36:18;;;;;;;7.83;3.53;;;6.50;99.90;;;;;;4880983;29;20456;-68
2024/03/18 05:38:45;;;;;;;5.53;3.70;;;6.60;99.90;;;;;;4880892;29;20493;-68
2024/03/18 05:41:12;;;;;;;4.70;3.10;;;6.60;99.90;;;;;;4880640;29;20472;-68
2024/03/18 05:43:40;;;;;;;8.37;3.53;;;6.60;99.90;;;;;;4880977;29;20457;-68
2024/03/18 05:46:07;;;;;;;8.63;3.53;;;6.60;99.90;;;;;;4881522;29;20506;-68
2024/03/18 05:48:34;;;;;;;5.13;3.60;;;6.60;99.90;;;;;;4880952;29;20452;-68
2024/03/18 05:51:03;;;;;;;7.83;3.93;;;6.60;99.90;;;;;;4881031;29;20890;-68
2024/03/18 05:53:30;;;;;;;6.43;3.60;;;6.60;99.90;;;;;;4881063;29;20551;-68
2024/03/18 05:55:57;;;;;;;4.47;2.83;;;6.50;99.90;;;;;;4881075;29;21086;-68
2024/03/18 05:58:25;;;;;;;7.10;4.50;;;6.50;99.90;;;;;;4880871;29;20458;-68
2024/03/18 06:00:52;;;;;;;5.70;3.97;;;6.50;99.90;;;;;;4880804;29;20476;-68
2024/03/18 06:03:19;;;;;;;7.23;4.60;;;6.50;99.90;;;;;;4882521;29;20545;-68
2024/03/18 06:05:47;;;;;;;5.63;3.87;;;6.50;99.90;;;;;;4896354;29;20938;-68
2024/03/18 06:08:15;;;;;;;4.97;3.50;;;6.50;99.90;;;;;;4880915;29;20476;-68
2024/03/18 06:10:43;;;;;;;8.20;3.70;;;6.50;99.90;;;;;;4880985;29;20510;-68
2024/03/18 06:13:10;;;;;;;5.70;3.67;;;6.50;99.90;;;;;;4880269;29;20471;-68
2024/03/18 06:15:37;;;;;;;7.47;4.10;;;6.50;99.90;;;;;;4880641;29;20451;-69
2024/03/18 06:18:05;;;;;;;9.83;4.13;;;6.50;99.90;;;;;;4880731;29;20447;-68
2024/03/18 06:20:32;;;;;;;5.60;3.30;;;6.50;99.90;;;;;;4880330;29;20994;-68
2024/03/18 06:23:00;;;;;;;5.60;2.87;;;6.50;99.90;;;;;;4880381;29;20460;-68
2024/03/18 06:28:13;;;;;;;5.80;3.80;;;6.40;99.90;;;;;;4895366;29;20869;-69
2024/03/18 06:30:40;;;;;;;5.50;3.33;;;6.40;99.90;;;;;;4880385;29;20481;-69
2024/03/18 06:33:08;;;;;;;6.07;3.43;;;6.40;99.90;;;;;;4880081;29;20457;-69
2024/03/18 06:35:35;;;;;;;6.67;3.80;;;6.40;99.90;;;;;;4880191;29;20452;-68
2024/03/18 06:38:02;;;;;;;6.03;4.20;;;6.40;99.90;;;;;;4880133;29;20473;-69
2024/03/18 06:40:31;;;;;;;7.30;5.40;;;6.40;99.90;;;;;;4880035;29;20478;-69
2024/03/18 06:42:58;;;;;;;9.50;6.33;;;6.40;99.90;;;;;;4880254;29;20532;-69
2024/03/18 06:45:26;;;;;;;12.53;5.27;;;6.40;99.90;;;;;;4880018;29;20497;-69
2024/03/18 06:47:53;;;;;;;4.73;3.73;;;6.40;99.90;;;;;;4880014;29;20485;-69
2024/03/18 06:50:21;;;;;;;6.20;4.37;;;6.40;99.90;;;;;;4880126;29;20484;-69
2024/03/18 06:52:48;;;;;;;10.50;6.27;;;6.50;99.90;;;;;;4880654;29;20529;-69
2024/03/18 06:55:15;;;;;;;8.00;4.20;;;6.50;99.90;;;;;;4879836;29;21026;-69
2024/03/18 06:57:44;;;;;;;6.40;4.50;;;6.50;99.90;;;;;;4879775;29;20457;-69
2024/03/18 07:00:13;;;;;;;4.53;3.47;;;6.50;99.90;;;;;;4879852;29;20474;-69
2024/03/18 07:02:40;;;;;;;9.37;4.83;;;6.50;99.90;;;;;;4879903;29;20506;-68
2024/03/18 07:05:09;;;;;;;6.70;4.00;;;6.50;99.90;;;;;;4879544;29;20472;-68
2024/03/18 07:07:36;;;;;;;7.73;5.23;;;6.60;99.90;;;;;;4878730;29;20534;-69
2024/03/18 07:10:04;;;;;;;7.73;5.70;;;6.70;99.90;;;;;;4879532;29;20499;-69
2024/03/18 07:12:31;;;;;;;7.97;4.80;;;6.70;99.90;;;;;;4879702;29;20837;-69
2024/03/18 07:15:00;;;;;;;6.77;4.30;;;6.70;99.90;;;;;;4879562;29;20449;-69
2024/03/18 07:17:27;;;;;;;5.07;3.83;;;6.70;99.90;;;;;;4879825;29;20452;-68
2024/03/18 07:19:54;;;;;;;6.50;4.13;;;6.70;99.90;;;;;;4879495;29;20481;-68
2024/03/18 07:22:22;;;;;;;12.73;9.70;;;6.70;99.90;;;;;;4879428;29;20452;-68
2024/03/18 07:24:49;;;;;;;9.33;6.70;;;6.70;99.90;;;;;;4879381;29;20510;-69
2024/03/18 07:27:16;;;;;;;7.30;4.90;;;6.70;99.90;;;;;;4879368;29;20457;-69
2024/03/18 07:29:43;;;;;;;9.37;6.17;;;6.70;99.90;;;;;;4879177;29;20480;-69
2024/03/18 07:32:12;;;;;;;8.43;6.33;;;6.70;99.90;;;;;;4879329;29;20450;-69
2024/03/18 07:34:40;;;;;;;7.97;4.20;;;6.70;99.90;;;;;;4879563;29;20458;-69
2024/03/18 07:37:07;;;;;;;6.73;4.17;;;6.80;99.90;;;;;;4879067;29;20495;-69
2024/03/18 07:39:34;;;;;;;6.67;4.80;;;6.80;99.90;;;;;;4879202;29;20479;-69
2024/03/18 07:42:01;;;;;;;7.47;4.60;;;6.80;99.90;;;;;;4894719;29;20460;-69
2024/03/18 07:44:29;;;;;;;6.37;4.90;;;6.90;99.90;;;;;;4894653;29;20869;-69
2024/03/18 07:46:56;;;;;;;7.67;4.67;;;6.90;99.90;;;;;;4878937;29;20460;-69
2024/03/18 07:49:25;;;;;;;12.90;8.83;;;6.90;99.90;;;;;;4878832;29;20461;-69
2024/03/18 07:51:52;;;;;;;13.80;7.73;;;6.90;99.90;;;;;;4878847;29;20954;-69
2024/03/18 07:54:19;;;;;;;7.83;4.97;;;6.90;99.90;;;;;;4879217;29;20475;-69
2024/03/18 07:56:46;;;;;;;6.90;4.93;;;6.90;99.90;;;;;;4879040;29;20462;-69
2024/03/18 07:59:14;;;;;;;7.37;5.00;;;7.00;99.90;;;;;;4878847;29;20457;-69
2024/03/18 08:01:41;;;;;;;7.47;5.40;;;7.00;99.90;;;;;;4894220;29;20462;-69
2024/03/18 08:04:08;;;;;;;7.10;5.77;;;7.00;99.90;;;;;;4878905;29;20524;-68
2024/03/18 08:06:39;;;;;;;8.53;6.37;;;7.00;99.90;;;;;;4878688;29;20481;-69
2024/03/18 08:09:06;;;;;;;8.98;5.95;;;7.00;99.90;;;;;;4879107;29;20454;-68
2024/03/18 08:11:33;;;;;;;8.47;6.47;;;7.00;99.90;;;;;;4878687;29;20219;-69
2024/03/18 08:14:01;;;;;;;8.70;5.87;;;7.00;99.90;;;;;;4878543;29;20446;-69
2024/03/18 08:16:29;;;;;;;7.83;5.47;;;7.10;99.90;;;;;;4878841;29;20534;-69
2024/03/18 08:18:56;;;;;;;7.93;5.50;;;7.10;99.90;;;;;;4878571;29;20442;-68
2024/03/18 08:21:23;;;;;;;6.00;5.10;;;7.10;99.90;;;;;;4878410;29;20485;-68
2024/03/18 08:23:52;;;;;;;7.47;5.70;;;7.20;99.90;;;;;;4894142;29;20546;-69
2024/03/18 08:26:19;;;;;;;8.07;5.40;;;7.20;99.90;;;;;;4893947;29;20537;-69
2024/03/18 08:28:46;;;;;;;8.73;5.90;;;7.20;99.90;;;;;;4878556;29;20458;-69
2024/03/18 08:31:13;;;;;;;11.83;7.63;;;7.30;99.90;;;;;;4878911;29;20489;-69
2024/03/18 08:33:41;;;;;;;8.63;7.07;;;7.30;99.90;;;;;;4878919;29;20518;-69
2024/03/18 08:36:08;;;;;;;10.57;6.30;;;7.40;99.90;;;;;;4878465;29;20804;-68
2024/03/18 08:38:36;;;;;;;6.80;5.50;;;7.40;99.90;;;;;;4863158;29;20446;-69
2024/03/18 08:41:05;;;;;;;6.33;5.73;;;7.50;99.90;;;;;;4878386;29;20533;-69
2024/03/18 08:43:32;;;;;;;8.80;5.67;;;7.50;99.90;;;;;;4878796;29;20468;-68
2024/03/18 08:46:01;;;;;;;9.60;7.70;;;7.50;99.90;;;;;;4878458;29;20473;-68
2024/03/18 08:48:28;;;;;;;10.27;8.80;;;7.60;99.90;;;;;;4879050;29;20446;-68
2024/03/18 08:50:55;;;;;;;8.83;5.77;;;7.60;99.90;;;;;;4879875;29;20918;-68
2024/03/18 08:53:22;;;;;;;7.83;6.40;;;7.60;99.90;;;;;;4866950;29;20975;-68
2024/03/18 08:55:50;;;;;;;9.23;7.90;;;7.60;99.90;;;;;;4882315;29;20446;-68
2024/03/18 08:58:19;;;;;;;7.90;6.43;;;7.60;99.90;;;;;;4883197;29;20454;-67
2024/03/18 09:00:46;;;;;;;8.53;5.90;;;7.70;99.90;;;;;;4883031;29;20533;-68
2024/03/18 09:03:14;;;;;;;8.23;6.27;;;7.70;99.90;;;;;;4882889;29;20497;-69
2024/03/18 09:05:41;;;;;;;9.03;6.30;;;7.70;99.90;;;;;;4882232;29;20980;-68
2024/03/18 09:08:08;;;;;;;7.40;5.70;;;7.80;99.90;;;;;;4882369;29;20449;-68
2024/03/18 09:10:36;;;;;;;10.53;7.20;;;7.80;99.90;;;;;;4882122;29;20601;-67
2024/03/18 09:13:03;;;;;;;6.33;5.67;;;7.80;99.90;;;;;;4881964;29;20863;-68
2024/03/18 09:15:32;;;;;;;6.70;6.07;;;7.90;99.90;;;;;;4882149;29;20498;-68
2024/03/18 09:17:59;;;;;;;8.17;6.43;;;8.00;99.90;;;;;;4882439;29;20537;-68
2024/03/18 09:20:26;;;;;;;7.90;6.27;;;8.00;99.90;;;;;;4882003;29;20482;-67
2024/03/18 09:22:54;;;;;;;9.10;6.30;;;8.10;99.90;;;;;;4882148;29;20467;-68
2024/03/18 09:25:22;;;;;;;8.63;7.80;;;8.20;99.90;;;;;;4881941;29;20489;-68
2024/03/18 09:27:49;;;;;;;7.77;6.60;;;8.20;99.90;;;;;;4882034;29;20457;-68
2024/03/18 09:30:17;;;;;;;7.30;6.60;;;8.30;99.90;;;;;;4881927;29;20496;-68
2024/03/18 09:32:45;;;;;;;7.47;6.67;;;8.30;99.90;;;;;;4881991;29;20514;-69
2024/03/18 09:35:13;;;;;;;10.63;7.17;;;8.30;99.90;;;;;;4881830;29;20497;-68
2024/03/18 09:37:40;;;;;;;8.57;6.70;;;8.40;99.90;;;;;;4882100;29;20598;-68
2024/03/18 09:40:08;;;;;;;7.87;6.87;;;8.40;99.90;;;;;;4882688;29;20637;-69
2024/03/18 09:42:38;;;;;;;7.20;6.60;;;8.50;99.90;;;;;;4882146;29;20502;-69
2024/03/18 09:45:09;;;;;;;10.27;7.73;;;8.50;99.90;;;;;;4881721;29;20450;-69
2024/03/18 09:47:37;;;;;;;7.63;6.87;;;8.50;99.90;;;;;;4882251;29;20449;-68
2024/03/18 09:50:06;;;;;;;8.30;7.40;;;8.50;99.90;;;;;;4881253;29;20470;-69
2024/03/18 09:52:36;;;;;;;7.90;7.10;;;8.50;99.90;;;;;;4881600;29;20465;-68
2024/03/18 09:55:19;;;;;;;9.60;8.27;;;8.50;99.90;;;;;;4881443;29;20867;-69
2024/03/18 09:57:47;;;;;;;7.90;7.10;;;8.60;99.90;;;;;;4881447;29;20477;-69
2024/03/18 10:00:15;;;;;;;7.87;7.17;;;8.50;99.90;;;;;;4881344;29;20538;-68
2024/03/18 10:02:42;;;;;;;9.07;7.60;;;8.60;99.90;;;;;;4879485;29;20827;-69
2024/03/18 10:05:11;;;;;;;10.17;8.00;;;8.60;99.90;;;;;;4880597;29;20450;-69
2024/03/18 10:07:40;;;;;;;9.20;8.30;;;8.60;99.90;;;;;;4880837;29;20450;-69
2024/03/18 10:10:15;;;;;;;8.80;7.93;;;8.60;99.90;;;;;;4880525;29;20531;-69
2024/03/18 10:12:43;;;;;;;9.57;7.97;;;8.60;99.90;;;;;;4879387;29;20900;-69
2024/03/18 10:15:13;;;;;;;8.53;7.73;;;8.80;99.90;;;;;;4880441;29;20603;-69
2024/03/18 10:17:41;;;;;;;9.27;8.27;;;8.80;99.90;;;;;;4896360;29;20451;-69
2024/03/18 10:20:19;;;;;;;11.60;9.90;;;8.80;99.90;;;;;;4880342;29;20541;-69
2024/03/18 10:22:47;;;;;;;9.17;8.27;;;8.80;99.90;;;;;;4880302;29;20478;-69
2024/03/18 10:25:17;;;;;;;10.03;8.83;;;8.80;99.90;;;;;;4880260;29;20936;-69
2024/03/18 10:27:44;;;;;;;9.93;8.33;;;8.80;99.90;;;;;;4895806;29;20453;-69
2024/03/18 10:30:13;;;;;;;8.80;7.90;;;8.90;99.90;;;;;;4880112;29;20999;-69
2024/03/18 10:32:42;;;;;;;9.27;8.00;;;8.90;99.90;;;;;;4880369;29;20450;-69
2024/03/18 10:35:21;;;;;;;8.70;7.90;;;8.90;99.90;;;;;;4895752;29;20454;-69
2024/03/18 10:37:56;;;;;;;9.10;8.30;;;8.90;99.90;;;;;;4880112;29;20915;-69
2024/03/18 10:40:38;;;;;;;11.40;9.00;;;8.90;99.90;;;;;;4880213;29;20476;-69
2024/03/18 10:43:07;;;;;;;12.60;8.80;;;8.90;99.90;;;;;;4880322;29;20434;-69
2024/03/18 10:45:36;;;;;;;10.20;8.53;;;8.90;99.90;;;;;;4879793;29;20474;-69
2024/03/18 10:48:05;;;;;;;11.67;9.20;;;9.00;99.90;;;;;;4879839;29;20464;-69
2024/03/18 10:50:35;;;;;;;11.93;9.47;;;9.00;99.90;;;;;;4880094;29;20474;-69
2024/03/18 10:53:03;;;;;;;11.53;9.00;;;9.00;99.90;;;;;;4880071;29;20537;-69
2024/03/18 10:55:32;;;;;;;10.50;8.73;;;9.00;99.90;;;;;;4880307;29;20510;-69
2024/03/18 10:58:02;;;;;;;10.07;8.60;;;9.10;99.90;;;;;;4879699;29;20442;-69
2024/03/18 11:00:30;;;;;;;11.10;8.73;;;9.10;99.90;;;;;;4879659;29;20462;-69
2024/03/18 11:02:59;;;;;;;11.90;9.27;;;9.10;99.90;;;;;;4879632;29;20506;-69
2024/03/18 11:05:28;;;;;;;9.90;8.90;;;9.20;99.90;;;;;;4879539;29;20847;-69
2024/03/18 11:07:59;;;;;;;9.57;8.50;;;9.20;99.90;;;;;;4879969;29;20907;-69
2024/03/18 11:10:30;;;;;;;10.33;9.37;;;9.30;99.90;;;;;;4879340;29;20474;-69
2024/03/18 11:13:08;;;;;;;10.50;9.20;;;9.30;99.90;;;;;;4879106;29;20454;-69
2024/03/18 11:15:37;;;;;;;10.60;9.60;;;9.40;99.90;;;;;;4879874;29;20501;-69
2024/03/18 11:18:06;;;;;;;13.30;10.33;;;9.40;99.90;;;;;;4879316;29;20529;-69
2024/03/18 11:20:46;;;;;;;9.97;9.00;;;9.50;99.90;;;;;;4879273;29;20474;-69
2024/03/18 11:23:19;;;;;;;9.77;8.80;;;9.50;99.90;;;;;;4879270;29;20449;-69
2024/03/18 11:25:53;;;;;;;11.03;9.40;;;9.50;99.90;;;;;;4879302;29;20455;-69
2024/03/18 11:28:21;;;;;;;9.63;8.40;;;9.60;99.90;;;;;;4879177;29;20441;-69
2024/03/18 11:30:48;;;;;;;10.13;9.13;;;9.60;99.90;;;;;;4879010;29;20476;-69
2024/03/18 11:33:16;;;;;;;9.97;9.07;;;9.70;99.90;;;;;;4879063;29;20545;-69
2024/03/18 11:35:44;;;;;;;9.73;8.00;;;9.70;99.90;;;;;;4878991;29;20458;-70
2024/03/18 11:38:13;;;;;;;9.63;8.40;;;9.70;99.90;;;;;;4878906;29;20450;-70
2024/03/18 11:40:42;;;;;;;10.00;9.10;;;9.70;99.90;;;;;;4878804;29;20863;-69
2024/03/18 11:43:10;;;;;;;9.20;8.30;;;9.70;99.90;;;;;;4878920;29;20446;-69
2024/03/18 11:45:38;;;;;;;11.03;9.90;;;9.80;99.90;;;;;;4878753;29;20449;-69
2024/03/18 11:48:06;;;;;;;10.30;8.80;;;9.80;99.90;;;;;;4879341;29;20454;-69
2024/03/18 11:50:35;;;;;;;12.90;11.70;;;9.90;99.90;;;;;;4878863;29;20481;-69
2024/03/18 11:53:04;;;;;;;9.03;8.23;;;9.90;99.90;;;;;;4879051;29;20450;-69
2024/03/18 11:55:34;;;;;;;8.93;8.13;;;10.00;99.90;;;;;;4879379;29;20456;-69
2024/03/18 11:58:04;;;;;;;12.00;8.93;;;10.00;99.90;;;;;;4878910;29;20446;-70
2024/03/18 12:00:33;;;;;;;10.80;9.57;;;10.10;99.90;;;;;;4878651;29;20837;-70
2024/03/18 12:03:02;;;;;;;10.30;9.00;;;10.10;99.90;;;;;;4878984;29;20539;-70
2024/03/18 12:05:30;;;;;;;10.63;8.70;;;10.20;99.90;;;;;;4894418;29;20867;-70
2024/03/18 12:07:58;;;;;;;10.07;8.70;;;10.30;99.90;;;;;;4878442;29;20549;-70
2024/03/18 12:10:26;;;;;;;10.60;9.50;;;10.30;99.90;;;;;;4878550;29;20924;-70
2024/03/18 12:12:55;;;;;;;11.00;9.03;;;10.40;99.90;;;;;;4878568;29;20850;-69
2024/03/18 12:15:25;;;;;;;9.63;8.73;;;10.50;99.90;;;;;;4878437;29;20446;-70
2024/03/18 12:17:52;;;;;;;18.40;15.83;;;10.60;99.90;;;;;;4878527;29;20502;-70
2024/03/18 12:20:24;;;;;;;12.37;10.77;;;10.60;99.90;;;;;;4878561;29;20474;-70
2024/03/18 12:22:59;;;;;;;10.90;9.33;;;10.70;99.90;;;;;;4878384;29;20462;-70
2024/03/18 12:28:42;;;;;;;10.53;9.50;;;10.80;99.90;;;;;;4894205;29;20824;-70
2024/03/18 12:31:12;;;;;;;10.57;9.43;;;10.80;99.90;;;;;;4878430;29;20478;-70
2024/03/18 12:33:41;;;;;;;11.10;10.00;;;10.90;99.90;;;;;;4878351;29;20458;-70
2024/03/18 12:36:13;;;;;;;9.60;8.73;;;10.90;99.90;;;;;;4878881;29;20864;-70
2024/03/18 12:38:42;;;;;;;11.23;10.03;;;11.00;99.90;;;;;;4878573;29;20538;-70
2024/03/18 12:41:15;;;;;;;10.00;9.00;;;11.00;99.90;;;;;;4878173;29;20525;-70
2024/03/18 12:43:43;;;;;;;10.20;8.83;;;11.00;99.90;;;;;;4878804;29;20445;-70
2024/03/18 12:46:13;;;;;;;11.30;8.87;;;11.00;99.90;;;;;;4878169;29;20454;-70
2024/03/18 12:48:40;;;;;;;11.23;9.13;;;11.00;99.90;;;;;;4878271;29;20438;-70
2024/03/18 12:51:10;;;;;;;13.23;9.97;;;11.00;99.90;;;;;;4878561;29;20901;-70
2024/03/18 12:53:38;;;;;;;11.80;10.07;;;11.00;99.90;;;;;;4878086;29;20536;-70
2024/03/18 12:56:06;;;;;;;10.60;9.50;;;11.00;99.90;;;;;;4878151;29;20902;-70
2024/03/18 12:58:34;;;;;;;11.40;9.63;;;11.00;99.90;;;;;;4878024;29;20545;-70
2024/03/18 13:01:02;;;;;;;10.67;9.57;;;11.00;99.90;;;;;;4878044;29;20972;-70
2024/03/18 13:03:31;;;;;;;10.80;9.80;;;11.00;99.90;;;;;;4878042;29;20968;-70